SQP7227 EPGD-EFTU
Flight info
| Callsign | SQP7227 |
|---|---|
| Flight time | 1h 10m |
| Altitude | 32000 |
| Route | VAPOS N133 PENOR/N0443F330 DCT ANFEV DCT DIPEB DCT VEDEN DCT NISIX DCT EMPOM |
| Aircraft | B738/M-SDE2E3FGHIRWXY/LB1 |
Departure
| Time | 2026-05-06 12:47 |
|---|---|
| Airport | Gdańsk Lech Wałęsa Airport (EPGD) |
Arrival
| Time | 2026-05-06 13:57 |
|---|---|
| Airport | Turku Airport (EFTU) |
| Time | Latitude | Longitude | Altitude | Speed | Heading |
|---|---|---|---|---|---|
| 2026-05-06 12:27 | 54.38081 | 18.46301 | 458 ft | 0 kts | 203° |
| 2026-05-06 12:42 | 54.38078 | 18.46299 | 457 ft | 5 kts | 201° |
| 2026-05-06 12:43 | 54.38038 | 18.46250 | 458 ft | 8 kts | 244° |
| 2026-05-06 12:43 | 54.38050 | 18.46160 | 458 ft | 9 kts | 295° |
| 2026-05-06 12:43 | 54.38089 | 18.46008 | 459 ft | 18 kts | 294° |
| 2026-05-06 12:43 | 54.38143 | 18.45793 | 454 ft | 21 kts | 292° |
| 2026-05-06 12:44 | 54.38113 | 18.45638 | 454 ft | 7 kts | 203° |
| 2026-05-06 12:44 | 54.38109 | 18.45635 | 454 ft | 0 kts | 204° |
| 2026-05-06 12:44 | 54.38108 | 18.45635 | 454 ft | 0 kts | 204° |
| 2026-05-06 12:44 | 54.38079 | 18.45610 | 454 ft | 9 kts | 207° |
| 2026-05-06 12:45 | 54.38049 | 18.45531 | 454 ft | 7 kts | 264° |
| 2026-05-06 12:45 | 54.38033 | 18.45514 | 454 ft | 2 kts | 172° |
| 2026-05-06 12:45 | 54.38028 | 18.45528 | 453 ft | 0 kts | 113° |
| 2026-05-06 12:46 | 54.38004 | 18.45625 | 455 ft | 37 kts | 113° |
| 2026-05-06 12:47 | 54.37783 | 18.46525 | 456 ft | 124 kts | 114° |
| 2026-05-06 12:47 | 54.37348 | 18.48177 | 766 ft | 168 kts | 109° |
| 2026-05-06 12:47 | 54.36847 | 18.50046 | 1975 ft | 163 kts | 110° |
| 2026-05-06 12:47 | 54.36383 | 18.51909 | 2920 ft | 182 kts | 114° |
| 2026-05-06 12:48 | 54.35870 | 18.54050 | 3281 ft | 205 kts | 115° |
| 2026-05-06 12:48 | 54.35297 | 18.56382 | 3759 ft | 217 kts | 117° |
| 2026-05-06 12:48 | 54.34694 | 18.58794 | 4344 ft | 224 kts | 118° |
| 2026-05-06 12:48 | 54.34062 | 18.61290 | 4932 ft | 233 kts | 118° |
| 2026-05-06 12:49 | 54.33509 | 18.63932 | 5588 ft | 242 kts | 102° |
| 2026-05-06 12:49 | 54.33728 | 18.66843 | 6338 ft | 256 kts | 69° |
| 2026-05-06 12:49 | 54.34883 | 18.69131 | 7006 ft | 265 kts | 33° |
| 2026-05-06 12:49 | 54.36550 | 18.70564 | 7595 ft | 270 kts | 22° |
| 2026-05-06 12:50 | 54.38305 | 18.71735 | 7810 ft | 272 kts | 20° |
| 2026-05-06 12:50 | 54.40079 | 18.72906 | 7830 ft | 275 kts | 20° |
| 2026-05-06 12:50 | 54.41975 | 18.73349 | 7884 ft | 283 kts | 346° |
| 2026-05-06 12:50 | 54.43752 | 18.71868 | 8306 ft | 289 kts | 314° |
| 2026-05-06 12:51 | 54.45084 | 18.69291 | 9107 ft | 289 kts | 301° |
| 2026-05-06 12:51 | 54.46245 | 18.66457 | 9968 ft | 291 kts | 299° |
| 2026-05-06 12:51 | 54.47406 | 18.63494 | 10405 ft | 311 kts | 298° |
| 2026-05-06 12:51 | 54.48641 | 18.60316 | 10599 ft | 336 kts | 299° |
| 2026-05-06 12:52 | 54.49986 | 18.56886 | 11004 ft | 352 kts | 299° |
| 2026-05-06 12:52 | 54.51379 | 18.53383 | 11755 ft | 356 kts | 299° |
| 2026-05-06 12:52 | 54.52791 | 18.49859 | 12588 ft | 359 kts | 299° |
| 2026-05-06 12:52 | 54.54216 | 18.46315 | 13418 ft | 362 kts | 299° |
| 2026-05-06 12:53 | 54.55169 | 18.43942 | 13911 ft | 365 kts | 299° |
| 2026-05-06 12:53 | 54.56619 | 18.40332 | 14604 ft | 369 kts | 299° |
| 2026-05-06 12:53 | 54.58087 | 18.36676 | 15302 ft | 372 kts | 299° |
| 2026-05-06 12:53 | 54.59566 | 18.32983 | 15997 ft | 376 kts | 299° |
| 2026-05-06 12:54 | 54.61544 | 18.28040 | 16936 ft | 380 kts | 300° |
| 2026-05-06 12:54 | 54.63054 | 18.24261 | 17607 ft | 384 kts | 300° |
| 2026-05-06 12:54 | 54.64576 | 18.20444 | 18262 ft | 388 kts | 300° |
| 2026-05-06 12:54 | 54.66172 | 18.16644 | 18819 ft | 395 kts | 306° |
| 2026-05-06 12:55 | 54.67452 | 18.14372 | 19191 ft | 402 kts | 314° |
| 2026-05-06 12:55 | 54.69713 | 18.11438 | 19772 ft | 411 kts | 324° |
| 2026-05-06 12:55 | 54.72193 | 18.08934 | 20342 ft | 415 kts | 326° |
| 2026-05-06 12:55 | 54.74724 | 18.06477 | 20886 ft | 419 kts | 327° |
| 2026-05-06 12:56 | 54.77286 | 18.04011 | 21420 ft | 423 kts | 327° |
| 2026-05-06 12:56 | 54.80702 | 18.00698 | 22131 ft | 427 kts | 327° |
| 2026-05-06 12:56 | 54.82455 | 17.98983 | 22485 ft | 429 kts | 327° |
| 2026-05-06 12:56 | 54.85060 | 17.96417 | 23049 ft | 432 kts | 327° |
| 2026-05-06 12:57 | 54.87642 | 17.93856 | 23586 ft | 435 kts | 327° |
| 2026-05-06 12:57 | 54.90276 | 17.91232 | 24050 ft | 438 kts | 327° |
| 2026-05-06 12:57 | 54.92930 | 17.88580 | 24513 ft | 441 kts | 327° |
| 2026-05-06 12:57 | 54.95599 | 17.85907 | 24924 ft | 444 kts | 327° |
| 2026-05-06 12:58 | 54.99156 | 17.82339 | 25428 ft | 448 kts | 327° |
| 2026-05-06 12:58 | 55.00985 | 17.80502 | 25683 ft | 450 kts | 327° |
| 2026-05-06 12:58 | 55.03709 | 17.77762 | 26066 ft | 453 kts | 327° |
| 2026-05-06 12:58 | 55.06445 | 17.75006 | 26433 ft | 456 kts | 327° |
| 2026-05-06 12:59 | 55.09166 | 17.72262 | 26785 ft | 459 kts | 328° |
| 2026-05-06 12:59 | 55.11934 | 17.69465 | 27160 ft | 462 kts | 328° |
| 2026-05-06 12:59 | 55.14720 | 17.66646 | 27501 ft | 465 kts | 328° |
| 2026-05-06 12:59 | 55.17525 | 17.63803 | 27852 ft | 467 kts | 328° |
| 2026-05-06 13:00 | 55.20343 | 17.60943 | 28213 ft | 469 kts | 328° |
| 2026-05-06 13:00 | 55.23173 | 17.58064 | 28550 ft | 472 kts | 328° |
| 2026-05-06 13:00 | 55.26022 | 17.55161 | 28875 ft | 475 kts | 328° |
| 2026-05-06 13:00 | 55.28884 | 17.52241 | 29186 ft | 477 kts | 328° |
| 2026-05-06 13:01 | 55.31720 | 17.49343 | 29515 ft | 479 kts | 328° |
| 2026-05-06 13:01 | 55.34603 | 17.46392 | 29841 ft | 481 kts | 328° |
| 2026-05-06 13:01 | 55.37490 | 17.43431 | 30221 ft | 480 kts | 328° |
| 2026-05-06 13:01 | 55.40363 | 17.40479 | 30661 ft | 477 kts | 328° |
| 2026-05-06 13:02 | 55.43225 | 17.37534 | 31074 ft | 475 kts | 328° |
| 2026-05-06 13:02 | 55.46077 | 17.34593 | 31413 ft | 475 kts | 328° |
| 2026-05-06 13:02 | 55.48936 | 17.31640 | 31733 ft | 476 kts | 328° |
| 2026-05-06 13:02 | 55.51789 | 17.28688 | 31928 ft | 478 kts | 328° |
| 2026-05-06 13:03 | 55.54631 | 17.25741 | 31907 ft | 480 kts | 328° |
| 2026-05-06 13:03 | 55.60404 | 17.19871 | 31895 ft | 478 kts | 334° |
| 2026-05-06 13:03 | 55.63583 | 17.18160 | 31926 ft | 479 kts | 351° |
| 2026-05-06 13:04 | 55.66917 | 17.17942 | 31919 ft | 482 kts | 6° |
| 2026-05-06 13:04 | 55.70178 | 17.19247 | 31939 ft | 482 kts | 19° |
| 2026-05-06 13:04 | 55.73343 | 17.21210 | 31916 ft | 483 kts | 21° |
| 2026-05-06 13:05 | 55.79248 | 17.26638 | 31929 ft | 482 kts | 37° |
| 2026-05-06 13:05 | 55.84219 | 17.34536 | 31935 ft | 479 kts | 49° |
| 2026-05-06 13:06 | 55.88838 | 17.43151 | 32128 ft | 483 kts | 49° |
| 2026-05-06 13:06 | 55.91157 | 17.47467 | 32517 ft | 481 kts | 49° |
| 2026-05-06 13:06 | 55.93477 | 17.51747 | 32913 ft | 479 kts | 49° |
| 2026-05-06 13:07 | 55.98135 | 17.60298 | 32924 ft | 479 kts | 48° |
| 2026-05-06 13:07 | 56.02732 | 17.68752 | 32925 ft | 476 kts | 49° |
| 2026-05-06 13:08 | 56.07345 | 17.77266 | 32924 ft | 477 kts | 49° |
| 2026-05-06 13:08 | 56.11966 | 17.85820 | 32928 ft | 478 kts | 49° |
| 2026-05-06 13:09 | 56.16595 | 17.94417 | 32930 ft | 480 kts | 49° |
| 2026-05-06 13:09 | 56.20830 | 18.03511 | 32946 ft | 477 kts | 58° |
| 2026-05-06 13:10 | 56.24607 | 18.13338 | 32929 ft | 479 kts | 59° |
| 2026-05-06 13:10 | 56.28384 | 18.23249 | 32928 ft | 481 kts | 59° |
| 2026-05-06 13:11 | 56.32222 | 18.33164 | 32940 ft | 484 kts | 58° |
| 2026-05-06 13:11 | 56.36063 | 18.43050 | 32931 ft | 485 kts | 58° |
| 2026-05-06 13:12 | 56.39930 | 18.53045 | 32931 ft | 487 kts | 58° |
| 2026-05-06 13:12 | 56.43799 | 18.63097 | 32938 ft | 488 kts | 58° |
| 2026-05-06 13:13 | 56.47668 | 18.73189 | 32942 ft | 489 kts | 58° |
| 2026-05-06 13:13 | 56.51697 | 18.83029 | 32924 ft | 494 kts | 47° |
| 2026-05-06 13:13 | 56.54339 | 18.87011 | 32951 ft | 496 kts | 34° |
| 2026-05-06 13:14 | 56.57370 | 18.90020 | 32944 ft | 499 kts | 21° |
| 2026-05-06 13:14 | 56.60682 | 18.91941 | 33103 ft | 501 kts | 15° |
| 2026-05-06 13:14 | 56.64035 | 18.93615 | 33448 ft | 500 kts | 14° |
| 2026-05-06 13:14 | 56.67399 | 18.95257 | 33831 ft | 498 kts | 14° |
| 2026-05-06 13:15 | 56.70737 | 18.96897 | 34192 ft | 496 kts | 14° |
| 2026-05-06 13:15 | 56.74062 | 18.98560 | 34494 ft | 495 kts | 14° |
| 2026-05-06 13:15 | 56.77337 | 19.00229 | 34744 ft | 495 kts | 14° |
| 2026-05-06 13:15 | 56.80648 | 19.01940 | 34991 ft | 496 kts | 14° |
| 2026-05-06 13:16 | 56.83967 | 19.03673 | 35260 ft | 495 kts | 14° |
| 2026-05-06 13:16 | 56.87278 | 19.05411 | 35537 ft | 495 kts | 14° |
| 2026-05-06 13:16 | 56.90585 | 19.07151 | 35799 ft | 494 kts | 14° |
| 2026-05-06 13:16 | 56.93893 | 19.08895 | 36052 ft | 494 kts | 14° |
| 2026-05-06 13:17 | 56.97192 | 19.10637 | 36333 ft | 493 kts | 13° |
| 2026-05-06 13:17 | 57.00487 | 19.12378 | 36609 ft | 492 kts | 13° |
| 2026-05-06 13:17 | 57.03724 | 19.14091 | 36833 ft | 492 kts | 13° |
| 2026-05-06 13:17 | 57.07024 | 19.15839 | 36980 ft | 494 kts | 13° |
| 2026-05-06 13:18 | 57.10335 | 19.17594 | 36971 ft | 497 kts | 13° |
| 2026-05-06 13:18 | 57.16978 | 19.21129 | 36972 ft | 496 kts | 13° |
| 2026-05-06 13:19 | 57.23561 | 19.24649 | 36970 ft | 490 kts | 13° |
| 2026-05-06 13:19 | 57.30062 | 19.28136 | 36984 ft | 489 kts | 13° |
| 2026-05-06 13:20 | 57.36582 | 19.31644 | 36987 ft | 488 kts | 13° |
| 2026-05-06 13:20 | 57.43099 | 19.35163 | 36987 ft | 488 kts | 13° |
| 2026-05-06 13:21 | 57.49619 | 19.38697 | 36993 ft | 488 kts | 13° |
| 2026-05-06 13:21 | 57.56099 | 19.42223 | 37000 ft | 489 kts | 13° |
| 2026-05-06 13:22 | 57.62634 | 19.45792 | 37003 ft | 490 kts | 13° |
| 2026-05-06 13:22 | 57.69192 | 19.49388 | 37003 ft | 492 kts | 12° |
| 2026-05-06 13:23 | 57.75765 | 19.53006 | 37007 ft | 493 kts | 12° |
| 2026-05-06 13:23 | 57.82308 | 19.56621 | 37004 ft | 494 kts | 12° |
| 2026-05-06 13:24 | 57.88912 | 19.60284 | 37008 ft | 495 kts | 12° |
| 2026-05-06 13:24 | 57.95526 | 19.63966 | 37012 ft | 496 kts | 12° |
| 2026-05-06 13:25 | 58.02135 | 19.67660 | 37011 ft | 496 kts | 12° |
| 2026-05-06 13:25 | 58.08707 | 19.71347 | 37016 ft | 496 kts | 12° |
| 2026-05-06 13:26 | 58.15320 | 19.75072 | 37014 ft | 496 kts | 12° |
| 2026-05-06 13:26 | 58.21922 | 19.78805 | 37017 ft | 495 kts | 12° |
| 2026-05-06 13:27 | 58.28522 | 19.82551 | 37023 ft | 495 kts | 12° |
| 2026-05-06 13:27 | 58.35107 | 19.86303 | 37017 ft | 494 kts | 12° |
| 2026-05-06 13:28 | 58.41646 | 19.90043 | 37023 ft | 494 kts | 12° |
| 2026-05-06 13:28 | 58.48229 | 19.93823 | 37029 ft | 493 kts | 12° |
| 2026-05-06 13:29 | 58.54799 | 19.97610 | 37029 ft | 493 kts | 12° |
| 2026-05-06 13:29 | 58.61363 | 20.01409 | 37029 ft | 493 kts | 12° |
| 2026-05-06 13:30 | 58.67882 | 20.05197 | 37031 ft | 493 kts | 11° |
| 2026-05-06 13:30 | 58.74431 | 20.09019 | 37014 ft | 485 kts | 11° |
| 2026-05-06 13:30 | 58.77608 | 20.10889 | 36993 ft | 470 kts | 11° |
| 2026-05-06 13:31 | 58.80706 | 20.12714 | 36687 ft | 463 kts | 11° |
| 2026-05-06 13:31 | 58.83806 | 20.14530 | 35819 ft | 472 kts | 11° |
| 2026-05-06 13:31 | 58.87001 | 20.16391 | 34729 ft | 486 kts | 11° |
| 2026-05-06 13:31 | 58.90283 | 20.18306 | 33643 ft | 500 kts | 11° |
| 2026-05-06 13:32 | 58.93603 | 20.20256 | 32597 ft | 509 kts | 11° |
| 2026-05-06 13:32 | 58.96997 | 20.22268 | 31902 ft | 510 kts | 11° |
| 2026-05-06 13:32 | 59.00371 | 20.24282 | 31406 ft | 505 kts | 11° |
| 2026-05-06 13:32 | 59.03714 | 20.26282 | 30906 ft | 502 kts | 11° |
| 2026-05-06 13:33 | 59.07041 | 20.28271 | 30423 ft | 498 kts | 11° |
| 2026-05-06 13:33 | 59.10343 | 20.30245 | 29900 ft | 494 kts | 11° |
| 2026-05-06 13:33 | 59.13612 | 20.32200 | 29355 ft | 490 kts | 11° |
| 2026-05-06 13:33 | 59.16860 | 20.34146 | 28842 ft | 485 kts | 11° |
| 2026-05-06 13:34 | 59.20028 | 20.36046 | 28349 ft | 480 kts | 11° |
| 2026-05-06 13:34 | 59.23204 | 20.37955 | 27863 ft | 476 kts | 10° |
| 2026-05-06 13:34 | 59.26348 | 20.39848 | 27388 ft | 471 kts | 10° |
| 2026-05-06 13:34 | 59.29465 | 20.41747 | 26905 ft | 468 kts | 12° |
| 2026-05-06 13:35 | 59.32479 | 20.44180 | 26399 ft | 471 kts | 20° |
| 2026-05-06 13:35 | 59.35315 | 20.47530 | 25705 ft | 479 kts | 30° |
| 2026-05-06 13:35 | 59.38022 | 20.51295 | 25187 ft | 476 kts | 31° |
| 2026-05-06 13:35 | 59.40656 | 20.55063 | 24708 ft | 473 kts | 31° |
| 2026-05-06 13:36 | 59.43294 | 20.58855 | 24235 ft | 468 kts | 31° |
| 2026-05-06 13:36 | 59.45919 | 20.62607 | 23769 ft | 464 kts | 30° |
| 2026-05-06 13:36 | 59.48528 | 20.66307 | 23231 ft | 460 kts | 30° |
| 2026-05-06 13:36 | 59.51115 | 20.69956 | 22721 ft | 455 kts | 30° |
| 2026-05-06 13:37 | 59.53675 | 20.73555 | 22244 ft | 449 kts | 30° |
| 2026-05-06 13:37 | 59.56204 | 20.77110 | 21784 ft | 444 kts | 30° |
| 2026-05-06 13:37 | 59.58701 | 20.80622 | 21334 ft | 439 kts | 30° |
| 2026-05-06 13:37 | 59.61135 | 20.84053 | 20887 ft | 434 kts | 30° |
| 2026-05-06 13:38 | 59.63579 | 20.87503 | 20451 ft | 429 kts | 30° |
| 2026-05-06 13:38 | 59.65991 | 20.90915 | 20021 ft | 424 kts | 31° |
| 2026-05-06 13:38 | 59.68379 | 20.94300 | 19592 ft | 420 kts | 31° |
| 2026-05-06 13:38 | 59.70740 | 20.97655 | 19163 ft | 416 kts | 31° |
| 2026-05-06 13:39 | 59.73079 | 21.00982 | 18741 ft | 412 kts | 31° |
| 2026-05-06 13:39 | 59.75395 | 21.04284 | 18317 ft | 408 kts | 31° |
| 2026-05-06 13:39 | 59.77691 | 21.07563 | 17835 ft | 404 kts | 31° |
| 2026-05-06 13:39 | 59.79961 | 21.10812 | 17382 ft | 400 kts | 31° |
| 2026-05-06 13:40 | 59.82173 | 21.13984 | 16977 ft | 395 kts | 31° |
| 2026-05-06 13:40 | 59.84387 | 21.17163 | 16558 ft | 391 kts | 31° |
| 2026-05-06 13:40 | 59.86576 | 21.20312 | 16160 ft | 386 kts | 31° |
| 2026-05-06 13:40 | 59.88737 | 21.23425 | 15756 ft | 382 kts | 31° |
| 2026-05-06 13:41 | 59.90878 | 21.26513 | 15361 ft | 377 kts | 31° |
| 2026-05-06 13:41 | 59.92986 | 21.29559 | 14974 ft | 373 kts | 31° |
| 2026-05-06 13:41 | 59.95076 | 21.32585 | 14585 ft | 369 kts | 31° |
| 2026-05-06 13:41 | 59.97140 | 21.35576 | 14208 ft | 365 kts | 31° |
| 2026-05-06 13:42 | 59.99188 | 21.38549 | 13828 ft | 362 kts | 31° |
| 2026-05-06 13:42 | 60.01184 | 21.41450 | 13404 ft | 358 kts | 31° |
| 2026-05-06 13:42 | 60.03180 | 21.44358 | 13046 ft | 353 kts | 31° |
| 2026-05-06 13:42 | 60.05151 | 21.47232 | 12685 ft | 348 kts | 32° |
| 2026-05-06 13:43 | 60.07093 | 21.50070 | 12329 ft | 343 kts | 32° |
| 2026-05-06 13:43 | 60.09008 | 21.52871 | 11974 ft | 339 kts | 32° |
| 2026-05-06 13:43 | 60.10905 | 21.55650 | 11598 ft | 336 kts | 32° |
| 2026-05-06 13:43 | 60.12783 | 21.58405 | 11248 ft | 333 kts | 33° |
| 2026-05-06 13:44 | 60.14641 | 21.61132 | 10911 ft | 329 kts | 33° |
| 2026-05-06 13:44 | 60.16480 | 21.63837 | 10628 ft | 324 kts | 33° |
| 2026-05-06 13:44 | 60.18238 | 21.66431 | 10513 ft | 314 kts | 33° |
| 2026-05-06 13:44 | 60.19974 | 21.68993 | 10377 ft | 304 kts | 33° |
| 2026-05-06 13:45 | 60.21531 | 21.71774 | 10251 ft | 298 kts | 52° |
| 2026-05-06 13:45 | 60.23475 | 21.78904 | 10216 ft | 287 kts | 61° |
| 2026-05-06 13:45 | 60.24378 | 21.82517 | 10110 ft | 291 kts | 62° |
| 2026-05-06 13:46 | 60.25285 | 21.86149 | 9943 ft | 289 kts | 62° |
| 2026-05-06 13:46 | 60.26179 | 21.89704 | 9632 ft | 287 kts | 61° |
| 2026-05-06 13:46 | 60.27078 | 21.93268 | 9340 ft | 285 kts | 62° |
| 2026-05-06 13:46 | 60.27969 | 21.96817 | 9074 ft | 282 kts | 62° |
| 2026-05-06 13:47 | 60.28855 | 22.00339 | 8799 ft | 281 kts | 61° |
| 2026-05-06 13:47 | 60.29742 | 22.03840 | 8500 ft | 279 kts | 61° |
| 2026-05-06 13:47 | 60.30621 | 22.07303 | 8235 ft | 277 kts | 61° |
| 2026-05-06 13:47 | 60.31491 | 22.10745 | 7956 ft | 275 kts | 61° |
| 2026-05-06 13:48 | 60.32354 | 22.14167 | 7698 ft | 273 kts | 61° |
| 2026-05-06 13:48 | 60.33208 | 22.17597 | 7419 ft | 274 kts | 62° |
| 2026-05-06 13:48 | 60.34048 | 22.20977 | 7136 ft | 272 kts | 62° |
| 2026-05-06 13:48 | 60.34895 | 22.24377 | 6866 ft | 270 kts | 62° |
| 2026-05-06 13:49 | 60.35738 | 22.27756 | 6608 ft | 269 kts | 63° |
| 2026-05-06 13:49 | 60.36578 | 22.31124 | 6341 ft | 268 kts | 63° |
| 2026-05-06 13:49 | 60.37418 | 22.34488 | 6052 ft | 268 kts | 62° |
| 2026-05-06 13:49 | 60.38254 | 22.37849 | 5769 ft | 267 kts | 62° |
| 2026-05-06 13:50 | 60.39076 | 22.41157 | 5484 ft | 265 kts | 63° |
| 2026-05-06 13:50 | 60.39901 | 22.44474 | 5233 ft | 264 kts | 63° |
| 2026-05-06 13:50 | 60.40723 | 22.47786 | 4969 ft | 263 kts | 63° |
| 2026-05-06 13:50 | 60.41536 | 22.51073 | 4692 ft | 258 kts | 62° |
| 2026-05-06 13:51 | 60.42329 | 22.54289 | 4422 ft | 252 kts | 63° |
| 2026-05-06 13:51 | 60.43097 | 22.57413 | 4154 ft | 244 kts | 62° |
| 2026-05-06 13:51 | 60.43847 | 22.60429 | 4008 ft | 234 kts | 57° |
| 2026-05-06 13:51 | 60.44937 | 22.62701 | 3829 ft | 217 kts | 22° |
| 2026-05-06 13:52 | 60.46257 | 22.63495 | 3848 ft | 191 kts | 6° |
| 2026-05-06 13:52 | 60.47522 | 22.63439 | 3806 ft | 184 kts | 352° |
| 2026-05-06 13:52 | 60.48896 | 22.63221 | 3951 ft | 205 kts | 353° |
| 2026-05-06 13:52 | 60.50286 | 22.62977 | 3890 ft | 192 kts | 352° |
| 2026-05-06 13:53 | 60.51506 | 22.62387 | 3582 ft | 173 kts | 325° |
| 2026-05-06 13:53 | 60.52080 | 22.60498 | 3402 ft | 152 kts | 281° |
| 2026-05-06 13:53 | 60.52295 | 22.58376 | 3182 ft | 156 kts | 286° |
| 2026-05-06 13:53 | 60.52493 | 22.56277 | 2960 ft | 147 kts | 275° |
| 2026-05-06 13:54 | 60.52533 | 22.54257 | 2772 ft | 145 kts | 273° |
| 2026-05-06 13:54 | 60.52542 | 22.52166 | 2570 ft | 151 kts | 269° |
| 2026-05-06 13:54 | 60.52484 | 22.50026 | 2418 ft | 152 kts | 268° |
| 2026-05-06 13:54 | 60.52387 | 22.47873 | 2092 ft | 154 kts | 265° |
| 2026-05-06 13:55 | 60.52256 | 22.45689 | 1918 ft | 155 kts | 265° |
| 2026-05-06 13:55 | 60.52166 | 22.43536 | 1721 ft | 150 kts | 267° |
| 2026-05-06 13:55 | 60.52097 | 22.41440 | 1516 ft | 149 kts | 266° |
| 2026-05-06 13:55 | 60.51992 | 22.39337 | 1274 ft | 150 kts | 265° |
| 2026-05-06 13:56 | 60.51898 | 22.37267 | 1011 ft | 148 kts | 268° |
| 2026-05-06 13:56 | 60.51808 | 22.35205 | 834 ft | 146 kts | 266° |
| 2026-05-06 13:56 | 60.51719 | 22.33146 | 624 ft | 148 kts | 266° |
| 2026-05-06 13:56 | 60.51623 | 22.31059 | 440 ft | 149 kts | 265° |
| 2026-05-06 13:57 | 60.51532 | 22.28989 | 230 ft | 145 kts | 264° |
| 2026-05-06 13:57 | 60.51447 | 22.27054 | 169 ft | 121 kts | 264° |
| 2026-05-06 13:57 | 60.51391 | 22.25801 | 164 ft | 57 kts | 264° |
| 2026-05-06 13:57 | 60.51371 | 22.25423 | 159 ft | 10 kts | 255° |
| 2026-05-06 13:58 | 60.51311 | 22.25268 | 155 ft | 16 kts | 206° |
| 2026-05-06 13:58 | 60.51213 | 22.25340 | 150 ft | 17 kts | 121° |
| 2026-05-06 13:58 | 60.51207 | 22.25569 | 156 ft | 16 kts | 85° |
| 2026-05-06 13:58 | 60.51216 | 22.25792 | 162 ft | 16 kts | 85° |
| 2026-05-06 13:59 | 60.51229 | 22.26050 | 168 ft | 19 kts | 84° |
| 2026-05-06 13:59 | 60.51271 | 22.26292 | 169 ft | 18 kts | 64° |
| 2026-05-06 13:59 | 60.51299 | 22.26534 | 170 ft | 17 kts | 84° |
| 2026-05-06 13:59 | 60.51310 | 22.26771 | 171 ft | 17 kts | 85° |
| 2026-05-06 14:00 | 60.51320 | 22.27003 | 172 ft | 16 kts | 85° |
| 2026-05-06 14:00 | 60.51327 | 22.27225 | 170 ft | 15 kts | 98° |
| 2026-05-06 14:00 | 60.51253 | 22.27251 | 173 ft | 11 kts | 208° |
| 2026-05-06 14:00 | 60.51204 | 22.27196 | 174 ft | 7 kts | 208° |
| 2026-05-06 14:01 | 60.51163 | 22.27154 | 175 ft | 6 kts | 198° |
| 2026-05-06 14:01 | 60.51134 | 22.27163 | 175 ft | 4 kts | 159° |
| 2026-05-06 14:01 | 60.51110 | 22.27192 | 175 ft | 4 kts | 149° |
| 2026-05-06 14:01 | 60.51091 | 22.27215 | 175 ft | 1 kts | 148° |
| 2026-05-06 14:02 | 60.51087 | 22.27220 | 175 ft | 0 kts | 148° |